sensor_id;sensor_type;location;lat;lon;timestamp;pressure;altitude;pressure_sealevel;temperature;humidity
79028;BME280;68427;48.476;19.102;2023-04-30T00:00:19;97376.59;;;7.55;83.75
79028;BME280;68427;48.476;19.102;2023-04-30T00:02:45;97378.72;;;7.52;84.37
79028;BME280;68427;48.476;19.102;2023-04-30T00:05:11;97380.91;;;7.48;84.08
79028;BME280;68427;48.476;19.102;2023-04-30T00:07:36;97395.09;;;7.46;84.31
79028;BME280;68427;48.476;19.102;2023-04-30T00:10:07;97388.59;;;7.42;83.91
79028;BME280;68427;48.476;19.102;2023-04-30T00:12:33;97389.13;;;7.37;83.72
79028;BME280;68427;48.476;19.102;2023-04-30T00:14:59;97392.56;;;7.38;83.46
79028;BME280;68427;48.476;19.102;2023-04-30T00:17:27;97397.94;;;7.36;83.06
79028;BME280;68427;48.476;19.102;2023-04-30T00:19:53;97398.31;;;7.33;83.51
79028;BME280;68427;48.476;19.102;2023-04-30T00:22:18;97400.44;;;7.29;83.02
79028;BME280;68427;48.476;19.102;2023-04-30T00:24:44;97396.75;;;7.24;83.93
79028;BME280;68427;48.476;19.102;2023-04-30T00:27:10;97386.22;;;7.17;83.18
79028;BME280;68427;48.476;19.102;2023-04-30T00:29:36;97383.31;;;7.12;83.04
79028;BME280;68427;48.476;19.102;2023-04-30T00:32:02;97376.22;;;7.06;84.34
79028;BME280;68427;48.476;19.102;2023-04-30T00:34:29;97383.75;;;7.01;84.10
79028;BME280;68427;48.476;19.102;2023-04-30T00:36:54;97381.94;;;7.01;84.76
79028;BME280;68427;48.476;19.102;2023-04-30T00:39:20;97373.97;;;7.03;84.64
79028;BME280;68427;48.476;19.102;2023-04-30T00:41:46;97389.41;;;7.04;84.53
79028;BME280;68427;48.476;19.102;2023-04-30T00:44:12;97396.91;;;7.07;83.91
79028;BME280;68427;48.476;19.102;2023-04-30T00:46:37;97382.53;;;7.11;84.08
79028;BME280;68427;48.476;19.102;2023-04-30T00:49:03;97384.31;;;7.11;83.82
79028;BME280;68427;48.476;19.102;2023-04-30T00:51:32;97389.38;;;7.12;83.70
79028;BME280;68427;48.476;19.102;2023-04-30T00:54:00;97385.31;;;7.10;83.69
79028;BME280;68427;48.476;19.102;2023-04-30T00:56:27;97378.03;;;7.05;83.83
79028;BME280;68427;48.476;19.102;2023-04-30T00:58:55;97376.22;;;7.06;84.40
79028;BME280;68427;48.476;19.102;2023-04-30T01:01:21;97376.28;;;6.98;83.69
79028;BME280;68427;48.476;19.102;2023-04-30T01:03:48;97378.25;;;6.96;83.77
79028;BME280;68427;48.476;19.102;2023-04-30T01:06:14;97385.28;;;6.95;83.53
79028;BME280;68427;48.476;19.102;2023-04-30T01:08:42;97376.69;;;6.86;83.70
79028;BME280;68427;48.476;19.102;2023-04-30T01:11:16;97375.75;;;6.79;83.51
79028;BME280;68427;48.476;19.102;2023-04-30T01:13:54;97373.75;;;6.66;83.41
79028;BME280;68427;48.476;19.102;2023-04-30T01:16:26;97369.19;;;6.68;84.52
79028;BME280;68427;48.476;19.102;2023-04-30T01:18:56;97370.78;;;6.69;84.95
79028;BME280;68427;48.476;19.102;2023-04-30T01:21:23;97368.53;;;6.66;84.57
79028;BME280;68427;48.476;19.102;2023-04-30T01:24:17;97370.50;;;6.64;83.25
79028;BME280;68427;48.476;19.102;2023-04-30T01:26:52;97375.13;;;6.54;83.01
79028;BME280;68427;48.476;19.102;2023-04-30T01:29:25;97369.16;;;6.45;83.13
79028;BME280;68427;48.476;19.102;2023-04-30T01:31:52;97365.47;;;6.40;83.79
79028;BME280;68427;48.476;19.102;2023-04-30T01:34:17;97367.59;;;6.36;84.08
79028;BME280;68427;48.476;19.102;2023-04-30T01:36:55;97358.53;;;6.24;84.05
79028;BME280;68427;48.476;19.102;2023-04-30T01:39:36;97365.09;;;6.12;84.44
79028;BME280;68427;48.476;19.102;2023-04-30T01:42:07;97361.91;;;5.93;84.43
79028;BME280;68427;48.476;19.102;2023-04-30T01:44:53;97362.25;;;5.90;84.43
79028;BME280;68427;48.476;19.102;2023-04-30T01:47:29;97366.31;;;5.93;84.28
79028;BME280;68427;48.476;19.102;2023-04-30T01:50:04;97360.78;;;5.88;83.89
79028;BME280;68427;48.476;19.102;2023-04-30T01:52:38;97368.41;;;5.89;83.70
79028;BME280;68427;48.476;19.102;2023-04-30T01:55:07;97364.53;;;5.85;83.76
79028;BME280;68427;48.476;19.102;2023-04-30T01:57:40;97366.19;;;5.78;83.57
79028;BME280;68427;48.476;19.102;2023-04-30T02:00:09;97360.69;;;5.73;83.80
79028;BME280;68427;48.476;19.102;2023-04-30T02:02:36;97364.75;;;5.67;83.60
79028;BME280;68427;48.476;19.102;2023-04-30T02:05:02;97358.72;;;5.67;84.06
79028;BME280;68427;48.476;19.102;2023-04-30T02:07:36;97363.47;;;5.63;83.71
79028;BME280;68427;48.476;19.102;2023-04-30T02:10:04;97367.53;;;5.57;83.60
79028;BME280;68427;48.476;19.102;2023-04-30T02:12:30;97363.19;;;5.50;82.81
79028;BME280;68427;48.476;19.102;2023-04-30T02:14:55;97371.47;;;5.45;83.32
79028;BME280;68427;48.476;19.102;2023-04-30T02:17:22;97366.09;;;5.47;83.10
79028;BME280;68427;48.476;19.102;2023-04-30T02:19:48;97364.00;;;5.34;83.12
79028;BME280;68427;48.476;19.102;2023-04-30T02:22:14;97366.94;;;5.31;84.76
79028;BME280;68427;48.476;19.102;2023-04-30T02:24:40;97363.69;;;5.29;84.57
79028;BME280;68427;48.476;19.102;2023-04-30T02:27:06;97363.38;;;5.24;83.26
79028;BME280;68427;48.476;19.102;2023-04-30T02:29:31;97361.44;;;5.26;84.26
79028;BME280;68427;48.476;19.102;2023-04-30T02:31:58;97363.84;;;5.19;84.16
79028;BME280;68427;48.476;19.102;2023-04-30T02:34:25;97367.59;;;5.16;82.57
79028;BME280;68427;48.476;19.102;2023-04-30T02:36:51;97367.78;;;5.15;82.22
79028;BME280;68427;48.476;19.102;2023-04-30T02:39:16;97369.88;;;5.11;81.89
79028;BME280;68427;48.476;19.102;2023-04-30T02:41:42;97372.78;;;5.08;82.33
79028;BME280;68427;48.476;19.102;2023-04-30T02:44:08;97374.13;;;5.04;82.01
79028;BME280;68427;48.476;19.102;2023-04-30T02:46:33;97375.06;;;5.03;81.84
79028;BME280;68427;48.476;19.102;2023-04-30T02:48:59;97372.97;;;4.98;81.80
79028;BME280;68427;48.476;19.102;2023-04-30T02:51:26;97373.28;;;4.87;82.51
79028;BME280;68427;48.476;19.102;2023-04-30T02:53:52;97371.50;;;4.80;83.35
79028;BME280;68427;48.476;19.102;2023-04-30T02:56:18;97372.78;;;4.75;82.50
79028;BME280;68427;48.476;19.102;2023-04-30T02:58:44;97377.00;;;4.60;83.24
79028;BME280;68427;48.476;19.102;2023-04-30T03:01:10;97383.63;;;4.54;83.34
79028;BME280;68427;48.476;19.102;2023-04-30T03:03:36;97381.84;;;4.55;82.48
79028;BME280;68427;48.476;19.102;2023-04-30T03:06:02;97384.28;;;4.57;82.60
79028;BME280;68427;48.476;19.102;2023-04-30T03:08:29;97378.44;;;4.54;82.69
79028;BME280;68427;48.476;19.102;2023-04-30T03:10:55;97383.31;;;4.49;82.86
79028;BME280;68427;48.476;19.102;2023-04-30T03:13:20;97385.22;;;4.47;83.20
79028;BME280;68427;48.476;19.102;2023-04-30T03:15:46;97385.19;;;4.31;83.23
79028;BME280;68427;48.476;19.102;2023-04-30T03:18:12;97379.31;;;4.21;83.90
79028;BME280;68427;48.476;19.102;2023-04-30T03:20:38;97374.91;;;4.13;83.42
79028;BME280;68427;48.476;19.102;2023-04-30T03:23:03;97383.66;;;4.04;84.36
79028;BME280;68427;48.476;19.102;2023-04-30T03:25:30;97385.88;;;3.99;84.34
79028;BME280;68427;48.476;19.102;2023-04-30T03:27:56;97384.94;;;4.00;84.23
79028;BME280;68427;48.476;19.102;2023-04-30T03:30:22;97384.59;;;4.03;84.09
79028;BME280;68427;48.476;19.102;2023-04-30T03:32:48;97367.28;;;4.03;84.26
79028;BME280;68427;48.476;19.102;2023-04-30T03:35:14;97389.31;;;3.99;84.51
79028;BME280;68427;48.476;19.102;2023-04-30T03:37:40;97381.66;;;3.98;84.85
79028;BME280;68427;48.476;19.102;2023-04-30T03:40:07;97388.31;;;4.00;84.73
79028;BME280;68427;48.476;19.102;2023-04-30T03:42:34;97386.25;;;4.04;85.22
79028;BME280;68427;48.476;19.102;2023-04-30T03:45:00;97382.66;;;3.97;86.01
79028;BME280;68427;48.476;19.102;2023-04-30T03:47:26;97389.56;;;3.88;86.78
79028;BME280;68427;48.476;19.102;2023-04-30T03:49:51;97396.06;;;3.92;87.28
79028;BME280;68427;48.476;19.102;2023-04-30T03:52:19;97393.63;;;3.90;87.41
79028;BME280;68427;48.476;19.102;2023-04-30T03:54:44;97399.91;;;3.88;87.34
79028;BME280;68427;48.476;19.102;2023-04-30T03:57:10;97401.56;;;3.89;87.20
79028;BME280;68427;48.476;19.102;2023-04-30T03:59:40;97398.47;;;3.94;86.88
79028;BME280;68427;48.476;19.102;2023-04-30T04:02:06;97407.25;;;4.01;86.66
79028;BME280;68427;48.476;19.102;2023-04-30T04:04:32;97402.41;;;3.98;85.76
79028;BME280;68427;48.476;19.102;2023-04-30T04:06:58;97417.34;;;4.04;85.23
79028;BME280;68427;48.476;19.102;2023-04-30T04:09:24;97408.25;;;4.00;85.88
79028;BME280;68427;48.476;19.102;2023-04-30T04:11:49;97416.69;;;4.02;85.78
79028;BME280;68427;48.476;19.102;2023-04-30T04:14:15;97417.97;;;4.06;85.24
79028;BME280;68427;48.476;19.102;2023-04-30T04:16:42;97422.88;;;4.09;84.73
79028;BME280;68427;48.476;19.102;2023-04-30T04:19:09;97415.69;;;4.03;85.78
79028;BME280;68427;48.476;19.102;2023-04-30T04:21:35;97425.28;;;4.10;85.91
79028;BME280;68427;48.476;19.102;2023-04-30T04:24:01;97416.38;;;4.13;85.74
79028;BME280;68427;48.476;19.102;2023-04-30T04:26:32;97420.13;;;4.19;85.66
79028;BME280;68427;48.476;19.102;2023-04-30T04:28:59;97416.78;;;4.26;85.99
79028;BME280;68427;48.476;19.102;2023-04-30T04:31:25;97418.59;;;4.34;85.46
79028;BME280;68427;48.476;19.102;2023-04-30T04:33:53;97422.81;;;4.43;86.08
79028;BME280;68427;48.476;19.102;2023-04-30T04:36:23;97425.44;;;4.51;85.62
79028;BME280;68427;48.476;19.102;2023-04-30T04:38:48;97423.34;;;4.55;85.24
79028;BME280;68427;48.476;19.102;2023-04-30T04:41:14;97426.25;;;4.52;85.75
79028;BME280;68427;48.476;19.102;2023-04-30T04:43:40;97437.78;;;4.66;85.60
79028;BME280;68427;48.476;19.102;2023-04-30T04:46:06;97448.34;;;4.72;86.50
79028;BME280;68427;48.476;19.102;2023-04-30T04:48:33;97442.56;;;4.87;85.71
79028;BME280;68427;48.476;19.102;2023-04-30T04:51:00;97451.63;;;4.99;86.27
79028;BME280;68427;48.476;19.102;2023-04-30T04:53:26;97449.53;;;5.11;85.75
79028;BME280;68427;48.476;19.102;2023-04-30T04:55:52;97452.47;;;5.16;85.58
79028;BME280;68427;48.476;19.102;2023-04-30T04:58:17;97449.38;;;5.20;85.67
79028;BME280;68427;48.476;19.102;2023-04-30T05:00:43;97448.09;;;5.33;85.31
79028;BME280;68427;48.476;19.102;2023-04-30T05:03:09;97447.44;;;5.47;84.72
79028;BME280;68427;48.476;19.102;2023-04-30T05:05:35;97454.88;;;5.58;85.27
79028;BME280;68427;48.476;19.102;2023-04-30T05:08:02;97452.78;;;5.70;85.17
79028;BME280;68427;48.476;19.102;2023-04-30T05:10:29;97458.09;;;5.85;84.72
79028;BME280;68427;48.476;19.102;2023-04-30T05:12:54;97461.97;;;6.05;84.75
79028;BME280;68427;48.476;19.102;2023-04-30T05:15:20;97451.00;;;6.26;83.58
79028;BME280;68427;48.476;19.102;2023-04-30T05:17:46;97457.91;;;6.51;83.01
79028;BME280;68427;48.476;19.102;2023-04-30T05:20:12;97455.84;;;6.77;82.33
79028;BME280;68427;48.476;19.102;2023-04-30T05:22:38;97457.47;;;7.01;81.98
79028;BME280;68427;48.476;19.102;2023-04-30T05:25:06;97464.88;;;7.35;81.51
79028;BME280;68427;48.476;19.102;2023-04-30T05:27:32;97465.13;;;7.64;80.36
79028;BME280;68427;48.476;19.102;2023-04-30T05:29:58;97461.13;;;7.91;80.52
79028;BME280;68427;48.476;19.102;2023-04-30T05:32:23;97462.22;;;8.26;79.22
79028;BME280;68427;48.476;19.102;2023-04-30T05:34:49;97462.28;;;8.62;78.90
79028;BME280;68427;48.476;19.102;2023-04-30T05:37:15;97459.31;;;9.02;77.13
79028;BME280;68427;48.476;19.102;2023-04-30T05:39:42;97455.16;;;9.50;77.39
79028;BME280;68427;48.476;19.102;2023-04-30T05:42:09;97457.56;;;10.08;75.62
79028;BME280;68427;48.476;19.102;2023-04-30T05:44:34;97458.47;;;10.64;74.34
79028;BME280;68427;48.476;19.102;2023-04-30T05:47:00;97465.25;;;11.19;71.81
79028;BME280;68427;48.476;19.102;2023-04-30T05:49:26;97455.81;;;11.72;70.34
79028;BME280;68427;48.476;19.102;2023-04-30T05:51:52;97466.47;;;12.23;69.04
79028;BME280;68427;48.476;19.102;2023-04-30T05:54:17;97460.81;;;12.78;67.68
79028;BME280;68427;48.476;19.102;2023-04-30T05:56:43;97451.63;;;13.26;66.04
79028;BME280;68427;48.476;19.102;2023-04-30T05:59:10;97464.00;;;13.82;64.21
79028;BME280;68427;48.476;19.102;2023-04-30T06:01:36;97456.97;;;14.38;63.01
79028;BME280;68427;48.476;19.102;2023-04-30T06:04:02;97461.88;;;15.01;61.35
79028;BME280;68427;48.476;19.102;2023-04-30T06:06:29;97463.56;;;15.68;59.64
79028;BME280;68427;48.476;19.102;2023-04-30T06:08:56;97463.34;;;16.28;57.35
79028;BME280;68427;48.476;19.102;2023-04-30T06:11:22;97460.09;;;16.90;56.03
79028;BME280;68427;48.476;19.102;2023-04-30T06:13:50;97459.66;;;17.39;54.01
79028;BME280;68427;48.476;19.102;2023-04-30T06:16:17;97453.41;;;17.62;53.71
79028;BME280;68427;48.476;19.102;2023-04-30T06:18:42;97462.41;;;17.95;52.11
79028;BME280;68427;48.476;19.102;2023-04-30T06:21:09;97448.69;;;18.37;49.34
79028;BME280;68427;48.476;19.102;2023-04-30T06:23:35;97455.59;;;18.60;48.80
79028;BME280;68427;48.476;19.102;2023-04-30T06:26:02;97452.00;;;18.93;47.89
79028;BME280;68427;48.476;19.102;2023-04-30T06:28:27;97449.41;;;19.25;47.14
79028;BME280;68427;48.476;19.102;2023-04-30T06:30:54;97450.00;;;19.32;45.99
79028;BME280;68427;48.476;19.102;2023-04-30T06:33:21;97453.34;;;19.82;44.75
79028;BME280;68427;48.476;19.102;2023-04-30T06:35:47;97445.59;;;19.75;44.80
79028;BME280;68427;48.476;19.102;2023-04-30T06:38:12;97441.09;;;20.23;44.04
79028;BME280;68427;48.476;19.102;2023-04-30T06:40:38;97440.63;;;20.32;43.56
79028;BME280;68427;48.476;19.102;2023-04-30T06:43:04;97448.47;;;20.64;41.03
79028;BME280;68427;48.476;19.102;2023-04-30T06:45:30;97442.97;;;20.86;41.41
79028;BME280;68427;48.476;19.102;2023-04-30T06:47:55;97446.22;;;21.03;41.46
79028;BME280;68427;48.476;19.102;2023-04-30T06:50:23;97438.78;;;21.26;41.32
79028;BME280;68427;48.476;19.102;2023-04-30T06:52:49;97439.88;;;21.86;39.70
79028;BME280;68427;48.476;19.102;2023-04-30T06:55:15;97446.28;;;21.44;39.50
79028;BME280;68427;48.476;19.102;2023-04-30T06:57:40;97445.50;;;21.85;38.75
79028;BME280;68427;48.476;19.102;2023-04-30T07:00:07;97442.50;;;22.01;39.76
79028;BME280;68427;48.476;19.102;2023-04-30T07:02:33;97446.41;;;22.55;38.33
79028;BME280;68427;48.476;19.102;2023-04-30T07:04:59;97446.84;;;23.27;36.16
79028;BME280;68427;48.476;19.102;2023-04-30T07:07:26;97437.66;;;23.39;35.99
79028;BME280;68427;48.476;19.102;2023-04-30T07:09:52;97448.66;;;23.32;35.47
79028;BME280;68427;48.476;19.102;2023-04-30T07:12:19;97437.00;;;23.18;36.09
79028;BME280;68427;48.476;19.102;2023-04-30T07:14:45;97446.31;;;22.71;36.13
79028;BME280;68427;48.476;19.102;2023-04-30T07:17:10;97449.50;;;23.27;35.51
79028;BME280;68427;48.476;19.102;2023-04-30T07:19:36;97453.63;;;23.83;35.24
79028;BME280;68427;48.476;19.102;2023-04-30T07:22:02;97453.06;;;22.58;35.53
79028;BME280;68427;48.476;19.102;2023-04-30T07:24:29;97458.22;;;23.43;35.94
79028;BME280;68427;48.476;19.102;2023-04-30T07:26:55;97460.53;;;23.55;35.19
79028;BME280;68427;48.476;19.102;2023-04-30T07:29:21;97469.31;;;23.61;34.58
79028;BME280;68427;48.476;19.102;2023-04-30T07:31:46;97471.91;;;23.32;34.60
79028;BME280;68427;48.476;19.102;2023-04-30T07:34:12;97476.47;;;24.00;33.72
79028;BME280;68427;48.476;19.102;2023-04-30T07:36:38;97465.81;;;23.94;33.95
79028;BME280;68427;48.476;19.102;2023-04-30T07:39:04;97476.09;;;24.11;33.12
79028;BME280;68427;48.476;19.102;2023-04-30T07:41:34;97477.25;;;24.58;32.81
79028;BME280;68427;48.476;19.102;2023-04-30T07:43:59;97473.63;;;25.30;32.27
79028;BME280;68427;48.476;19.102;2023-04-30T07:46:25;97472.19;;;25.90;30.91
79028;BME280;68427;48.476;19.102;2023-04-30T07:48:51;97476.72;;;24.03;33.63
79028;BME280;68427;48.476;19.102;2023-04-30T07:51:16;97469.63;;;22.44;35.78
79028;BME280;68427;48.476;19.102;2023-04-30T07:53:42;97472.25;;;23.25;35.44
79028;BME280;68427;48.476;19.102;2023-04-30T07:56:08;97479.50;;;24.70;33.00
79028;BME280;68427;48.476;19.102;2023-04-30T07:58:35;97487.44;;;26.08;31.47
79028;BME280;68427;48.476;19.102;2023-04-30T08:01:01;97476.59;;;25.80;29.53
79028;BME280;68427;48.476;19.102;2023-04-30T08:03:26;97469.25;;;25.15;31.87
79028;BME280;68427;48.476;19.102;2023-04-30T08:05:52;97482.34;;;25.22;31.69
79028;BME280;68427;48.476;19.102;2023-04-30T08:08:18;97482.78;;;25.81;31.07
79028;BME280;68427;48.476;19.102;2023-04-30T08:10:43;97478.56;;;25.75;30.32
79028;BME280;68427;48.476;19.102;2023-04-30T08:13:09;97489.63;;;25.54;30.88
79028;BME280;68427;48.476;19.102;2023-04-30T08:15:36;97483.03;;;26.59;29.01
79028;BME280;68427;48.476;19.102;2023-04-30T08:18:04;97480.69;;;27.66;27.15
79028;BME280;68427;48.476;19.102;2023-04-30T08:20:31;97484.19;;;26.11;29.08
79028;BME280;68427;48.476;19.102;2023-04-30T08:22:56;97486.59;;;25.61;30.31
79028;BME280;68427;48.476;19.102;2023-04-30T08:25:22;97488.34;;;24.47;33.36
79028;BME280;68427;48.476;19.102;2023-04-30T08:27:48;97484.25;;;24.78;32.70
79028;BME280;68427;48.476;19.102;2023-04-30T08:30:14;97486.47;;;24.71;31.13
79028;BME280;68427;48.476;19.102;2023-04-30T08:32:41;97483.66;;;23.36;34.46
79028;BME280;68427;48.476;19.102;2023-04-30T08:35:08;97480.50;;;22.74;34.73
79028;BME280;68427;48.476;19.102;2023-04-30T08:37:34;97488.94;;;22.06;36.10
79028;BME280;68427;48.476;19.102;2023-04-30T08:40:00;97484.31;;;21.09;36.91
79028;BME280;68427;48.476;19.102;2023-04-30T08:42:30;97491.38;;;20.73;40.10
79028;BME280;68427;48.476;19.102;2023-04-30T08:44:56;97494.03;;;20.25;40.92
79028;BME280;68427;48.476;19.102;2023-04-30T08:47:23;97494.31;;;19.86;41.27
79028;BME280;68427;48.476;19.102;2023-04-30T08:49:50;97504.53;;;20.42;40.92
79028;BME280;68427;48.476;19.102;2023-04-30T08:52:16;97490.53;;;21.81;37.85
79028;BME280;68427;48.476;19.102;2023-04-30T08:54:43;97496.31;;;23.20;35.14
79028;BME280;68427;48.476;19.102;2023-04-30T08:57:09;97493.84;;;23.73;34.27
79028;BME280;68427;48.476;19.102;2023-04-30T08:59:35;97494.97;;;24.97;32.02
79028;BME280;68427;48.476;19.102;2023-04-30T09:02:00;97496.66;;;24.69;31.67
79028;BME280;68427;48.476;19.102;2023-04-30T09:04:26;97498.81;;;23.85;32.87
79028;BME280;68427;48.476;19.102;2023-04-30T09:06:54;97493.88;;;23.28;34.29
79028;BME280;68427;48.476;19.102;2023-04-30T09:09:27;97507.88;;;22.25;35.37
79028;BME280;68427;48.476;19.102;2023-04-30T09:12:10;97504.94;;;21.54;37.31
79028;BME280;68427;48.476;19.102;2023-04-30T09:14:36;97499.78;;;21.17;38.56
79028;BME280;68427;48.476;19.102;2023-04-30T09:17:05;97496.34;;;21.27;38.17
79028;BME280;68427;48.476;19.102;2023-04-30T09:19:31;97504.06;;;21.33;37.63
79028;BME280;68427;48.476;19.102;2023-04-30T09:21:58;97496.66;;;21.46;36.95
79028;BME280;68427;48.476;19.102;2023-04-30T09:24:24;97493.47;;;21.59;37.03
79028;BME280;68427;48.476;19.102;2023-04-30T09:26:50;97491.88;;;22.30;36.18
79028;BME280;68427;48.476;19.102;2023-04-30T09:29:16;97498.72;;;23.61;34.55
79028;BME280;68427;48.476;19.102;2023-04-30T09:31:42;97491.31;;;25.50;30.52
79028;BME280;68427;48.476;19.102;2023-04-30T09:34:09;97496.44;;;26.45;29.70
79028;BME280;68427;48.476;19.102;2023-04-30T09:36:35;97495.50;;;27.19;28.28
79028;BME280;68427;48.476;19.102;2023-04-30T09:39:10;97500.78;;;27.83;28.00
79028;BME280;68427;48.476;19.102;2023-04-30T09:41:36;97507.56;;;28.34;26.79
79028;BME280;68427;48.476;19.102;2023-04-30T09:44:04;97502.66;;;28.67;24.69
79028;BME280;68427;48.476;19.102;2023-04-30T09:46:31;97510.06;;;29.19;24.11
79028;BME280;68427;48.476;19.102;2023-04-30T09:48:58;97506.91;;;29.60;23.34
79028;BME280;68427;48.476;19.102;2023-04-30T09:51:24;97499.91;;;29.16;24.77
79028;BME280;68427;48.476;19.102;2023-04-30T09:53:50;97507.84;;;29.90;22.86
79028;BME280;68427;48.476;19.102;2023-04-30T09:56:19;97494.22;;;29.43;24.17
79028;BME280;68427;48.476;19.102;2023-04-30T09:58:49;97503.88;;;29.10;24.67
79028;BME280;68427;48.476;19.102;2023-04-30T10:01:16;97505.50;;;28.71;24.70
79028;BME280;68427;48.476;19.102;2023-04-30T10:03:42;97496.38;;;28.09;25.22
79028;BME280;68427;48.476;19.102;2023-04-30T10:06:11;97492.75;;;28.45;24.44
79028;BME280;68427;48.476;19.102;2023-04-30T10:08:39;97494.50;;;27.87;24.70
79028;BME280;68427;48.476;19.102;2023-04-30T10:11:07;97492.47;;;27.93;25.17
79028;BME280;68427;48.476;19.102;2023-04-30T10:13:39;97487.81;;;27.62;25.95
79028;BME280;68427;48.476;19.102;2023-04-30T10:16:10;97484.91;;;27.81;25.65
79028;BME280;68427;48.476;19.102;2023-04-30T10:18:38;97487.09;;;28.24;25.37
79028;BME280;68427;48.476;19.102;2023-04-30T10:21:06;97481.03;;;28.18;24.83
79028;BME280;68427;48.476;19.102;2023-04-30T10:23:37;97477.97;;;29.00;23.37
79028;BME280;68427;48.476;19.102;2023-04-30T10:26:03;97483.66;;;28.41;23.56
79028;BME280;68427;48.476;19.102;2023-04-30T10:28:29;97481.44;;;28.74;23.30
79028;BME280;68427;48.476;19.102;2023-04-30T10:30:58;97486.16;;;28.69;23.81
79028;BME280;68427;48.476;19.102;2023-04-30T10:33:30;97482.84;;;28.00;24.35
79028;BME280;68427;48.476;19.102;2023-04-30T10:36:01;97488.63;;;29.14;24.85
79028;BME280;68427;48.476;19.102;2023-04-30T10:38:30;97488.59;;;28.88;24.41
79028;BME280;68427;48.476;19.102;2023-04-30T10:40:58;97488.94;;;29.64;24.75
79028;BME280;68427;48.476;19.102;2023-04-30T10:43:23;97492.16;;;29.40;23.16
79028;BME280;68427;48.476;19.102;2023-04-30T10:45:49;97484.22;;;29.53;23.13
79028;BME280;68427;48.476;19.102;2023-04-30T10:48:17;97485.59;;;30.02;21.89
79028;BME280;68427;48.476;19.102;2023-04-30T10:50:50;97478.00;;;29.61;22.71
79028;BME280;68427;48.476;19.102;2023-04-30T10:53:17;97478.91;;;28.95;22.84
79028;BME280;68427;48.476;19.102;2023-04-30T10:55:45;97473.25;;;29.32;22.39
79028;BME280;68427;48.476;19.102;2023-04-30T10:58:23;97483.34;;;30.04;21.16
79028;BME280;68427;48.476;19.102;2023-04-30T11:00:51;97481.84;;;29.77;21.25
79028;BME280;68427;48.476;19.102;2023-04-30T11:03:27;97474.53;;;29.25;22.60
79028;BME280;68427;48.476;19.102;2023-04-30T11:05:54;97472.63;;;29.43;22.67
79028;BME280;68427;48.476;19.102;2023-04-30T11:08:31;97473.91;;;28.22;23.38
79028;BME280;68427;48.476;19.102;2023-04-30T11:10:58;97468.59;;;27.55;23.82
79028;BME280;68427;48.476;19.102;2023-04-30T11:13:26;97470.41;;;27.09;25.27
79028;BME280;68427;48.476;19.102;2023-04-30T11:15:52;97468.69;;;27.13;25.77
79028;BME280;68427;48.476;19.102;2023-04-30T11:18:18;97475.44;;;27.61;24.37
79028;BME280;68427;48.476;19.102;2023-04-30T11:20:49;97465.94;;;27.05;24.93
79028;BME280;68427;48.476;19.102;2023-04-30T11:23:16;97481.44;;;26.71;26.76
79028;BME280;68427;48.476;19.102;2023-04-30T11:25:47;97475.47;;;26.75;26.76
79028;BME280;68427;48.476;19.102;2023-04-30T11:28:14;97465.88;;;26.41;26.68
79028;BME280;68427;48.476;19.102;2023-04-30T11:30:50;97458.19;;;25.03;27.08
79028;BME280;68427;48.476;19.102;2023-04-30T11:33:16;97468.47;;;24.96;28.07
79028;BME280;68427;48.476;19.102;2023-04-30T11:35:42;97462.06;;;26.00;27.40
79028;BME280;68427;48.476;19.102;2023-04-30T11:38:11;97462.22;;;25.57;27.05
79028;BME280;68427;48.476;19.102;2023-04-30T11:40:37;97464.91;;;25.57;28.69
79028;BME280;68427;48.476;19.102;2023-04-30T11:43:03;97463.34;;;25.37;27.22
79028;BME280;68427;48.476;19.102;2023-04-30T11:45:29;97463.41;;;24.70;28.74
79028;BME280;68427;48.476;19.102;2023-04-30T11:47:55;97461.44;;;24.33;28.24
79028;BME280;68427;48.476;19.102;2023-04-30T11:50:22;97457.91;;;23.84;31.09
79028;BME280;68427;48.476;19.102;2023-04-30T11:52:55;97461.44;;;23.01;31.64
79028;BME280;68427;48.476;19.102;2023-04-30T11:55:24;97460.13;;;23.72;31.42
79028;BME280;68427;48.476;19.102;2023-04-30T11:57:52;97462.47;;;24.13;29.98
79028;BME280;68427;48.476;19.102;2023-04-30T12:00:21;97463.72;;;24.21;29.71
79028;BME280;68427;48.476;19.102;2023-04-30T12:02:48;97455.75;;;24.83;27.72
79028;BME280;68427;48.476;19.102;2023-04-30T12:05:15;97463.69;;;24.45;27.84
79028;BME280;68427;48.476;19.102;2023-04-30T12:07:46;97453.00;;;24.69;29.25
79028;BME280;68427;48.476;19.102;2023-04-30T12:10:12;97453.47;;;24.76;28.18
79028;BME280;68427;48.476;19.102;2023-04-30T12:12:41;97468.09;;;24.84;28.14
79028;BME280;68427;48.476;19.102;2023-04-30T12:15:11;97454.94;;;24.39;28.21
79028;BME280;68427;48.476;19.102;2023-04-30T12:17:37;97451.06;;;23.73;29.72
79028;BME280;68427;48.476;19.102;2023-04-30T12:20:03;97457.31;;;23.87;28.87
79028;BME280;68427;48.476;19.102;2023-04-30T12:22:29;97454.84;;;24.25;29.06
79028;BME280;68427;48.476;19.102;2023-04-30T12:24:57;97454.84;;;24.25;28.59
79028;BME280;68427;48.476;19.102;2023-04-30T12:27:23;97450.56;;;24.91;28.53
79028;BME280;68427;48.476;19.102;2023-04-30T12:29:50;97456.59;;;24.59;28.22
79028;BME280;68427;48.476;19.102;2023-04-30T12:32:20;97452.28;;;24.63;27.80
79028;BME280;68427;48.476;19.102;2023-04-30T12:34:46;97443.31;;;24.73;27.27
79028;BME280;68427;48.476;19.102;2023-04-30T12:37:14;97450.53;;;24.24;29.40
79028;BME280;68427;48.476;19.102;2023-04-30T12:39:40;97444.63;;;23.69;28.94
79028;BME280;68427;48.476;19.102;2023-04-30T12:42:06;97444.69;;;24.22;28.29
79028;BME280;68427;48.476;19.102;2023-04-30T12:44:41;97443.44;;;24.63;30.02
79028;BME280;68427;48.476;19.102;2023-04-30T12:47:08;97448.16;;;24.90;29.56
79028;BME280;68427;48.476;19.102;2023-04-30T12:49:34;97440.53;;;25.21;27.23
79028;BME280;68427;48.476;19.102;2023-04-30T12:52:02;97429.97;;;24.68;29.81
79028;BME280;68427;48.476;19.102;2023-04-30T12:54:30;97447.47;;;25.03;27.82